Time;durP1;ratioP1;P1;durP2;ratioP2;P2;SDS_P1;SDS_P2;PMS_P1;PMS_P2;Temp;Humidity;BMP_temperature;BMP_pressure;BME280_temperature;BME280_humidity;BME280_pressure;Samples;Min_cycle;Max_cycle;Signal;HPM_P1;HPM_P2
2022/06/19 00:02:17;;;;;;;9.40;3.88;;;11.80;99.90;;;;;;5030937;28;20573;-82
2022/06/19 00:04:46;;;;;;;7.25;3.75;;;11.80;99.90;;;;;;5013358;28;20106;-82
2022/06/19 00:07:12;;;;;;;6.25;3.83;;;11.80;99.90;;;;;;5031159;28;20144;-83
2022/06/19 00:09:38;;;;;;;12.77;5.10;;;11.80;99.90;;;;;;5030979;28;20104;-83
2022/06/19 00:12:05;;;;;;;10.25;4.35;;;11.80;99.90;;;;;;5031096;28;20021;-82
2022/06/19 00:14:33;;;;;;;9.82;4.93;;;11.80;99.90;;;;;;5031297;28;20033;-83
2022/06/19 00:17:00;;;;;;;8.90;3.92;;;11.90;99.90;;;;;;5029570;22;20487;-80
2022/06/19 00:19:25;;;;;;;13.88;4.80;;;11.80;99.90;;;;;;4997285;28;20030;-81
2022/06/19 00:21:51;;;;;;;9.43;4.78;;;11.90;99.90;;;;;;4991390;28;20033;-80
2022/06/19 00:24:17;;;;;;;9.95;4.03;;;11.90;99.90;;;;;;4988795;28;20034;-81
2022/06/19 00:26:42;;;;;;;10.20;4.35;;;12.00;99.90;;;;;;4989527;28;20022;-81
2022/06/19 00:29:08;;;;;;;6.78;4.32;;;12.00;99.90;;;;;;4989436;28;20026;-80
2022/06/19 00:31:34;;;;;;;8.52;4.43;;;12.00;99.90;;;;;;4990596;28;20034;-79
2022/06/19 00:34:00;;;;;;;7.57;4.43;;;12.10;99.90;;;;;;4990279;28;20062;-80
2022/06/19 00:36:27;;;;;;;8.02;4.22;;;12.10;99.90;;;;;;4989575;28;20033;-81
2022/06/19 00:38:54;;;;;;;9.57;3.97;;;12.10;99.90;;;;;;4991237;28;20050;-81
2022/06/19 00:41:20;;;;;;;10.07;5.18;;;12.10;99.90;;;;;;4989752;28;20038;-80
2022/06/19 00:44:13;;;;;;;10.48;5.18;;;12.10;99.90;;;;;;4990673;28;20039;-80
2022/06/19 00:47:02;;;;;;;7.35;4.40;;;12.10;99.90;;;;;;4988869;28;20030;-80
2022/06/19 00:49:41;;;;;;;11.80;4.70;;;12.10;99.90;;;;;;4996898;28;20019;-81
2022/06/19 00:52:12;;;;;;;12.73;5.95;;;12.10;99.90;;;;;;4990975;28;20023;-81
2022/06/19 00:54:56;;;;;;;9.07;5.03;;;12.10;99.90;;;;;;4989659;28;20065;-80
2022/06/19 00:57:23;;;;;;;7.97;4.50;;;12.20;99.90;;;;;;4990623;28;20018;-80
2022/06/19 00:59:56;;;;;;;10.18;4.57;;;12.20;99.90;;;;;;4990930;28;20054;-80
2022/06/19 01:02:22;;;;;;;9.88;4.85;;;12.20;99.90;;;;;;4990095;28;20419;-80
2022/06/19 01:04:51;;;;;;;12.75;4.65;;;12.10;99.90;;;;;;4990504;28;20026;-80
2022/06/19 01:07:18;;;;;;;14.75;5.15;;;12.20;99.90;;;;;;4989599;28;20352;-80
2022/06/19 01:09:44;;;;;;;11.75;6.13;;;12.20;99.90;;;;;;4990559;28;20025;-81
2022/06/19 01:12:11;;;;;;;14.63;4.53;;;12.20;99.90;;;;;;4990377;28;20027;-80
2022/06/19 01:14:40;;;;;;;13.38;5.53;;;12.20;99.90;;;;;;4990442;28;20038;-80
2022/06/19 01:17:08;;;;;;;13.13;5.55;;;12.30;99.90;;;;;;5001660;23;20034;-79
2022/06/19 01:19:41;;;;;;;9.23;5.40;;;12.30;99.90;;;;;;4980334;28;20027;-79
2022/06/19 01:22:18;;;;;;;12.57;5.40;;;12.30;99.90;;;;;;4976184;28;20037;-79
2022/06/19 01:25:01;;;;;;;8.60;5.22;;;12.30;99.90;;;;;;4976012;28;20062;-79
2022/06/19 01:30:15;;;;;;;12.32;7.00;;;12.30;99.90;;;;;;4976046;28;20173;-79
2022/06/19 01:32:43;;;;;;;9.68;5.68;;;12.30;99.90;;;;;;4975821;28;20065;-80
2022/06/19 01:35:10;;;;;;;14.25;5.50;;;12.30;99.90;;;;;;4975893;28;20031;-79
2022/06/19 01:37:38;;;;;;;11.35;6.05;;;12.20;99.90;;;;;;4975850;28;20057;-79
2022/06/19 01:40:12;;;;;;;11.23;4.93;;;12.10;99.90;;;;;;4975836;28;20077;-80
2022/06/19 01:42:37;;;;;;;8.02;4.38;;;12.10;99.90;;;;;;4975620;28;20134;-79
2022/06/19 01:45:05;;;;;;;9.07;4.25;;;12.10;99.90;;;;;;4975403;28;20461;-79
2022/06/19 01:47:31;;;;;;;7.85;4.25;;;12.00;99.90;;;;;;4975344;28;20399;-79
2022/06/19 01:49:59;;;;;;;5.82;2.85;;;11.90;99.90;;;;;;4975436;28;20113;-80
2022/06/19 01:52:28;;;;;;;8.32;2.92;;;11.80;99.90;;;;;;4981979;28;20019;-79
2022/06/19 01:55:01;;;;;;;6.72;2.80;;;11.60;99.90;;;;;;4975380;28;20066;-80
2022/06/19 01:57:29;;;;;;;3.85;2.50;;;11.50;99.90;;;;;;4975278;28;20030;-79
2022/06/19 01:59:57;;;;;;;4.55;2.40;;;11.50;99.90;;;;;;4975452;28;20030;-78
2022/06/19 02:02:23;;;;;;;10.13;2.10;;;11.40;99.90;;;;;;4975320;28;20019;-79
2022/06/19 02:04:49;;;;;;;5.18;2.03;;;11.30;99.90;;;;;;4975227;28;20114;-79
2022/06/19 02:07:21;;;;;;;2.53;1.50;;;11.20;99.90;;;;;;4974968;28;20555;-78
2022/06/19 02:09:47;;;;;;;2.53;1.40;;;11.20;99.90;;;;;;4968812;28;20029;-79
2022/06/19 02:12:14;;;;;;;4.80;1.80;;;11.10;99.90;;;;;;4974806;28;20479;-78
2022/06/19 02:14:40;;;;;;;7.40;1.48;;;11.10;99.90;;;;;;4974887;28;20053;-78
2022/06/19 02:17:30;;;;;;;5.20;1.60;;;11.00;99.90;;;;;;5026611;23;20042;-81
2022/06/19 02:19:56;;;;;;;6.32;1.70;;;11.00;99.90;;;;;;5027542;28;20028;-81
2022/06/19 02:22:21;;;;;;;2.25;1.20;;;11.00;99.90;;;;;;5032613;28;20100;-82
2022/06/19 02:24:47;;;;;;;2.25;1.63;;;10.90;99.90;;;;;;5032091;28;20045;-82
2022/06/19 02:27:13;;;;;;;2.10;1.25;;;10.90;99.90;;;;;;5014804;28;20062;-81
2022/06/19 02:29:41;;;;;;;3.95;1.10;;;10.80;99.90;;;;;;5012938;28;20022;-82
2022/06/19 02:32:18;;;;;;;2.97;1.35;;;10.80;99.90;;;;;;5012521;28;20111;-81
2022/06/19 02:34:44;;;;;;;4.50;1.45;;;10.80;99.90;;;;;;5012966;28;20398;-81
2022/06/19 02:37:31;;;;;;;3.50;1.40;;;10.80;99.90;;;;;;5012910;28;20018;-81
2022/06/19 02:40:16;;;;;;;3.72;1.00;;;10.80;99.90;;;;;;4990445;28;20041;-81
2022/06/19 02:42:47;;;;;;;1.75;1.63;;;10.80;99.90;;;;;;5012774;28;20070;-83
2022/06/19 02:45:20;;;;;;;4.32;1.42;;;10.80;99.90;;;;;;5006348;28;20026;-83
2022/06/19 02:47:48;;;;;;;4.95;1.42;;;10.80;99.90;;;;;;5012279;28;20045;-82
2022/06/19 02:50:17;;;;;;;4.50;1.17;;;10.80;99.90;;;;;;5012510;28;20021;-81
2022/06/19 02:52:43;;;;;;;3.85;1.27;;;10.70;99.90;;;;;;4995146;28;20029;-81
2022/06/19 02:55:09;;;;;;;1.90;1.15;;;10.80;99.90;;;;;;5005745;28;20026;-81
2022/06/19 02:57:35;;;;;;;3.78;1.58;;;10.70;99.90;;;;;;5012429;28;20080;-83
2022/06/19 03:00:03;;;;;;;5.97;2.03;;;10.80;99.90;;;;;;5012175;28;20026;-83
2022/06/19 03:02:31;;;;;;;3.13;1.35;;;10.70;99.90;;;;;;5011702;28;20029;-82
2022/06/19 03:05:03;;;;;;;3.47;1.70;;;10.70;99.90;;;;;;5012318;28;20014;-82
2022/06/19 03:07:29;;;;;;;5.00;1.80;;;10.70;99.90;;;;;;5012361;28;20026;-83
2022/06/19 03:09:55;;;;;;;4.93;1.67;;;10.70;99.90;;;;;;5012127;28;20026;-82
2022/06/19 03:12:21;;;;;;;1.50;1.38;;;10.70;99.90;;;;;;5011795;28;20482;-83
2022/06/19 03:14:47;;;;;;;3.78;1.73;;;10.70;99.90;;;;;;5011658;28;20136;-82
2022/06/19 03:17:19;;;;;;;4.63;1.33;;;10.70;99.90;;;;;;5020985;22;20830;-78
2022/06/19 03:19:45;;;;;;;;;;;10.60;99.90;;;;;;4993579;28;20022;-78
2022/06/19 03:22:11;;;;;;;1.38;1.10;;;10.60;99.90;;;;;;5007432;28;19960;-78
2022/06/19 03:24:38;;;;;;;4.32;1.70;;;10.70;99.90;;;;;;4992756;28;20023;-77
2022/06/19 03:27:04;;;;;;;3.03;1.63;;;10.60;99.90;;;;;;4992482;28;20109;-78
2022/06/19 03:29:31;;;;;;;2.53;1.70;;;10.70;99.90;;;;;;4992304;28;20114;-78
2022/06/19 03:31:57;;;;;;;3.38;1.60;;;10.70;99.90;;;;;;4991852;28;20026;-78
2022/06/19 03:34:23;;;;;;;2.35;1.90;;;10.80;99.90;;;;;;4992433;28;20031;-80
2022/06/19 03:36:48;;;;;;;3.78;1.48;;;10.80;99.90;;;;;;4992009;28;20073;-80
2022/06/19 03:39:14;;;;;;;2.55;1.90;;;10.80;99.90;;;;;;4991750;28;20022;-79
2022/06/19 03:41:40;;;;;;;2.95;1.73;;;10.80;99.90;;;;;;4991753;28;20026;-80
2022/06/19 03:44:06;;;;;;;6.05;1.95;;;10.80;99.90;;;;;;4991597;28;20014;-79
2022/06/19 03:46:32;;;;;;;3.83;1.83;;;10.80;99.90;;;;;;4991220;28;20022;-79
2022/06/19 03:48:58;;;;;;;4.03;1.88;;;10.80;99.90;;;;;;4992040;28;20467;-79
2022/06/19 03:51:24;;;;;;;4.88;1.55;;;10.80;99.90;;;;;;4991416;28;20054;-79
2022/06/19 03:53:54;;;;;;;5.53;1.50;;;10.70;99.90;;;;;;4991260;28;20394;-79
2022/06/19 03:56:31;;;;;;;4.93;2.00;;;10.80;99.90;;;;;;4992286;28;20030;-80
2022/06/19 03:58:57;;;;;;;6.88;1.80;;;10.70;99.90;;;;;;4986330;28;20058;-80
2022/06/19 04:01:37;;;;;;;4.68;1.60;;;10.70;99.90;;;;;;4991218;28;20022;-80
2022/06/19 04:04:04;;;;;;;4.00;1.77;;;10.60;99.90;;;;;;4991629;28;20018;-79
2022/06/19 04:06:33;;;;;;;5.78;2.03;;;10.60;99.90;;;;;;4991447;28;20061;-79
2022/06/19 04:08:59;;;;;;;4.30;2.05;;;10.70;99.90;;;;;;4991820;28;20080;-80
2022/06/19 04:11:27;;;;;;;5.93;2.20;;;10.70;99.90;;;;;;4991300;28;20394;-80
2022/06/19 04:13:53;;;;;;;2.38;1.73;;;10.70;99.90;;;;;;4991080;28;20038;-80
2022/06/19 04:16:25;;;;;;;3.75;2.17;;;10.70;99.90;;;;;;5007372;23;20521;-81
2022/06/19 04:18:52;;;;;;;;;;;10.80;99.90;;;;;;4970671;28;20026;-81
2022/06/19 04:21:20;;;;;;;3.00;1.55;;;10.80;99.90;;;;;;4973142;28;19993;-80
2022/06/19 04:23:46;;;;;;;2.88;1.80;;;10.80;99.90;;;;;;4972996;28;20027;-81
2022/06/19 04:26:16;;;;;;;1.55;1.45;;;10.90;99.90;;;;;;4978431;28;20014;-81
2022/06/19 04:28:43;;;;;;;2.60;1.75;;;11.00;99.90;;;;;;4973051;28;20019;-80
2022/06/19 04:31:09;;;;;;;4.28;1.80;;;11.00;99.90;;;;;;4972486;28;20438;-80
2022/06/19 04:33:39;;;;;;;5.75;2.10;;;11.00;99.90;;;;;;4972513;28;20030;-81
2022/06/19 04:36:13;;;;;;;1.98;1.77;;;11.00;99.90;;;;;;4965830;28;20042;-81
2022/06/19 04:38:41;;;;;;;3.42;1.95;;;11.00;99.90;;;;;;4972290;28;20027;-80
2022/06/19 04:41:19;;;;;;;4.60;1.75;;;11.10;99.90;;;;;;4972409;28;20467;-80
2022/06/19 04:43:45;;;;;;;2.65;1.90;;;11.10;99.90;;;;;;4972377;28;20046;-80
2022/06/19 04:46:11;;;;;;;3.97;1.52;;;11.00;99.90;;;;;;4971837;28;20026;-80
2022/06/19 04:48:38;;;;;;;3.45;1.80;;;11.00;99.90;;;;;;4972221;28;20027;-80
2022/06/19 04:51:04;;;;;;;5.13;1.35;;;11.00;99.90;;;;;;4972210;28;20039;-81
2022/06/19 04:53:32;;;;;;;6.35;1.88;;;11.00;99.90;;;;;;4974651;28;20562;-81
2022/06/19 04:55:59;;;;;;;3.20;1.48;;;11.00;99.90;;;;;;4982364;28;20407;-81
2022/06/19 04:58:24;;;;;;;3.47;1.65;;;11.10;99.90;;;;;;4976419;28;20025;-81
2022/06/19 05:00:51;;;;;;;3.70;1.58;;;11.10;99.90;;;;;;4976473;28;20030;-81
2022/06/19 05:03:19;;;;;;;4.68;1.50;;;11.10;99.90;;;;;;4976024;28;20026;-81
2022/06/19 05:05:45;;;;;;;6.78;1.70;;;11.10;99.90;;;;;;4975900;28;20031;-81
2022/06/19 05:08:11;;;;;;;2.72;1.50;;;11.20;99.90;;;;;;4975998;28;20054;-80
2022/06/19 05:10:37;;;;;;;3.25;1.30;;;11.20;99.90;;;;;;4975959;28;20054;-80
2022/06/19 05:13:05;;;;;;;4.72;1.35;;;11.20;99.90;;;;;;4976145;28;20033;-81
2022/06/19 05:15:34;;;;;;;4.40;1.20;;;11.30;99.90;;;;;;4976161;28;20483;-81
2022/06/19 05:18:01;;;;;;;1.70;1.00;;;11.20;99.90;;;;;;5026489;22;20029;-80
2022/06/19 05:20:26;;;;;;;1.85;1.10;;;11.20;99.90;;;;;;5013248;28;20080;-80
2022/06/19 05:22:52;;;;;;;3.78;1.30;;;11.30;99.90;;;;;;5013480;28;20475;-80
2022/06/19 05:25:18;;;;;;;6.03;1.63;;;11.30;99.90;;;;;;5014029;28;20022;-81
2022/06/19 05:27:43;;;;;;;3.65;1.40;;;11.30;99.90;;;;;;5013462;28;20021;-80
2022/06/19 05:30:12;;;;;;;5.82;1.38;;;11.40;99.90;;;;;;5013387;28;20052;-79
2022/06/19 05:32:38;;;;;;;10.18;1.88;;;11.40;99.90;;;;;;5013331;28;20071;-80
2022/06/19 05:35:05;;;;;;;2.08;1.10;;;11.50;99.90;;;;;;5006619;28;20022;-81
2022/06/19 05:37:30;;;;;;;5.45;1.42;;;11.60;99.90;;;;;;5013276;28;20034;-80
2022/06/19 05:39:57;;;;;;;7.00;1.50;;;11.60;99.90;;;;;;5013430;28;20026;-80
2022/06/19 05:42:23;;;;;;;3.20;1.00;;;11.70;99.90;;;;;;5013819;28;20018;-80
2022/06/19 05:44:48;;;;;;;4.35;1.45;;;11.70;99.90;;;;;;5013214;28;20517;-81
2022/06/19 05:47:14;;;;;;;3.53;1.40;;;11.70;99.90;;;;;;5012851;28;20018;-81
2022/06/19 05:49:40;;;;;;;3.30;1.50;;;11.70;99.90;;;;;;5013678;28;20026;-80
2022/06/19 05:52:15;;;;;;;3.83;1.17;;;11.70;99.90;;;;;;5012802;28;20490;-81
2022/06/19 05:54:41;;;;;;;6.43;1.80;;;11.70;99.90;;;;;;5013007;28;20092;-81
2022/06/19 05:57:07;;;;;;;7.38;1.33;;;11.70;99.90;;;;;;5013631;28;20026;-80
2022/06/19 05:59:33;;;;;;;6.18;2.35;;;11.60;99.90;;;;;;5012710;28;20072;-80
2022/06/19 06:01:58;;;;;;;6.03;1.25;;;11.60;99.90;;;;;;5012602;28;20029;-81
2022/06/19 06:04:24;;;;;;;8.88;1.75;;;11.60;99.90;;;;;;5012344;28;20104;-80
2022/06/19 06:06:50;;;;;;;3.70;1.30;;;11.60;99.90;;;;;;5013000;28;20026;-81
2022/06/19 06:09:15;;;;;;;4.68;1.50;;;11.60;99.90;;;;;;5012674;28;20030;-81
2022/06/19 06:11:41;;;;;;;7.70;1.60;;;11.70;99.90;;;;;;5013012;28;20026;-80
2022/06/19 06:14:07;;;;;;;7.00;1.40;;;11.70;99.90;;;;;;4995618;28;20120;-81
2022/06/19 06:16:33;;;;;;;4.50;1.30;;;11.70;99.90;;;;;;5012155;28;20157;-80
2022/06/19 06:18:59;;;;;;;4.47;1.30;;;11.70;99.90;;;;;;5012629;28;20033;-81
2022/06/19 06:21:25;;;;;;;6.07;1.63;;;11.80;99.90;;;;;;5006203;28;20026;-81
2022/06/19 06:23:52;;;;;;;3.72;1.92;;;11.80;99.90;;;;;;5012598;28;20018;-81
2022/06/19 06:26:29;;;;;;;5.40;1.15;;;11.90;99.90;;;;;;4994120;28;20022;-80
2022/06/19 06:28:57;;;;;;;2.10;1.38;;;12.00;99.90;;;;;;5012633;28;20467;-81
2022/06/19 06:31:24;;;;;;;5.43;1.85;;;11.90;99.90;;;;;;5005454;28;20378;-79
2022/06/19 06:33:50;;;;;;;7.07;1.80;;;12.00;99.90;;;;;;5012429;28;20026;-80
2022/06/19 06:36:17;;;;;;;5.85;1.70;;;12.10;99.90;;;;;;5012227;28;20034;-80
2022/06/19 06:38:43;;;;;;;5.88;1.42;;;12.10;99.90;;;;;;5012618;28;20026;-80
2022/06/19 06:41:12;;;;;;;7.22;2.03;;;12.20;99.90;;;;;;5011918;28;20056;-79
2022/06/19 06:43:40;;;;;;;6.72;1.58;;;12.10;99.90;;;;;;5012130;28;20108;-80
2022/06/19 06:46:08;;;;;;;4.65;1.92;;;12.20;99.90;;;;;;5025917;23;20030;-79
2022/06/19 06:48:35;;;;;;;5.82;2.10;;;12.30;99.90;;;;;;4967284;28;20035;-80
2022/06/19 06:51:12;;;;;;;7.95;1.88;;;12.40;99.90;;;;;;4971583;28;20027;-79
2022/06/19 06:53:37;;;;;;;3.58;1.30;;;12.50;99.90;;;;;;4974293;28;20479;-79
2022/06/19 06:56:04;;;;;;;6.93;1.65;;;12.60;99.90;;;;;;4974039;28;20080;-79
2022/06/19 06:58:30;;;;;;;6.30;1.40;;;12.60;99.90;;;;;;4974164;28;20035;-79
2022/06/19 07:00:55;;;;;;;4.63;1.60;;;12.70;99.90;;;;;;4974475;28;20042;-79
2022/06/19 07:03:22;;;;;;;6.97;1.65;;;12.80;99.90;;;;;;4973949;28;20150;-79
2022/06/19 07:05:47;;;;;;;10.50;2.03;;;12.80;99.90;;;;;;4974036;28;20103;-79
2022/06/19 07:08:13;;;;;;;3.33;1.58;;;13.00;99.90;;;;;;4973829;28;20022;-80
2022/06/19 07:10:39;;;;;;;6.65;1.63;;;13.20;99.90;;;;;;4972804;28;20031;-80
2022/06/19 07:13:05;;;;;;;5.68;1.40;;;13.50;99.90;;;;;;4974021;28;20030;-79
2022/06/19 07:15:32;;;;;;;4.95;1.60;;;13.70;99.90;;;;;;4973478;28;20069;-79
2022/06/19 07:17:58;;;;;;;3.97;1.58;;;14.00;99.90;;;;;;4973315;28;20022;-79
2022/06/19 07:20:24;;;;;;;10.82;2.53;;;14.10;99.90;;;;;;4973689;28;20022;-80
2022/06/19 07:22:50;;;;;;;4.75;1.90;;;14.20;99.90;;;;;;4973592;28;20023;-79
2022/06/19 07:25:20;;;;;;;8.02;1.92;;;14.10;99.90;;;;;;4973495;28;20029;-80
2022/06/19 07:27:47;;;;;;;6.88;1.70;;;14.10;99.90;;;;;;4973100;28;20015;-80
2022/06/19 07:30:19;;;;;;;9.02;1.48;;;14.20;99.90;;;;;;4972550;28;20019;-79
2022/06/19 07:32:45;;;;;;;5.63;1.75;;;14.30;99.90;;;;;;4971723;28;20452;-80
2022/06/19 07:35:11;;;;;;;5.90;1.58;;;14.50;99.90;;;;;;4970307;28;20066;-79
2022/06/19 07:37:37;;;;;;;5.88;1.73;;;14.50;99.90;;;;;;4972289;28;20027;-80
2022/06/19 07:40:04;;;;;;;3.70;1.60;;;14.30;99.90;;;;;;4973118;28;20374;-79
2022/06/19 07:42:29;;;;;;;3.58;1.45;;;14.40;99.90;;;;;;4973149;28;20444;-79
2022/06/19 07:44:55;;;;;;;4.30;1.40;;;14.40;99.90;;;;;;4972985;28;20101;-79
2022/06/19 07:50:15;;;;;;;6.03;1.73;;;14.60;99.90;;;;;;4973159;28;20549;-81
2022/06/19 07:52:43;;;;;;;4.10;1.65;;;15.00;99.90;;;;;;4973254;28;20024;-83
2022/06/19 07:55:12;;;;;;;9.52;1.70;;;15.20;99.90;;;;;;4973055;28;20119;-81
2022/06/19 07:57:38;;;;;;;5.80;2.30;;;15.10;99.90;;;;;;4973279;28;20034;-81
2022/06/19 08:00:05;;;;;;;2.78;1.23;;;15.20;99.90;;;;;;4973156;28;20030;-81
2022/06/19 08:02:32;;;;;;;7.35;2.80;;;15.20;99.90;;;;;;4952160;28;20023;-81
2022/06/19 08:04:58;;;;;;;6.38;1.48;;;15.40;99.90;;;;;;4973197;28;20098;-80
2022/06/19 08:07:24;;;;;;;4.65;1.63;;;15.40;99.90;;;;;;4972877;28;20030;-81
2022/06/19 08:09:49;;;;;;;3.90;1.35;;;15.30;99.90;;;;;;4973132;28;20383;-81
2022/06/19 08:12:15;;;;;;;7.60;1.73;;;15.40;99.90;;;;;;4955173;28;20108;-81
2022/06/19 08:14:41;;;;;;;7.05;2.03;;;15.20;99.90;;;;;;4972659;28;20031;-81
2022/06/19 08:17:07;;;;;;;6.13;1.58;;;15.10;99.90;;;;;;4971334;28;20065;-80
2022/06/19 08:19:34;;;;;;;13.57;2.15;;;15.00;99.90;;;;;;4970479;28;20031;-81
2022/06/19 08:22:00;;;;;;;9.75;2.10;;;14.90;99.90;;;;;;4966734;28;20102;-82
2022/06/19 08:24:25;;;;;;;8.45;1.73;;;14.90;99.90;;;;;;4962974;28;20019;-81
2022/06/19 08:27:12;;;;;;;5.57;1.38;;;14.90;99.90;;;;;;4965479;28;20384;-81
2022/06/19 08:29:37;;;;;;;7.13;1.98;;;14.90;99.90;;;;;;4970402;28;20039;-80
2022/06/19 08:32:03;;;;;;;6.65;1.80;;;15.10;99.90;;;;;;4971986;28;20149;-80
2022/06/19 08:34:29;;;;;;;7.80;1.45;;;15.40;99.90;;;;;;4972519;28;20093;-81
2022/06/19 08:36:56;;;;;;;5.65;1.40;;;15.60;99.90;;;;;;4972552;28;20087;-82
2022/06/19 08:39:22;;;;;;;5.35;1.40;;;15.80;99.90;;;;;;4970478;28;20027;-82
2022/06/19 08:42:03;;;;;;;6.35;1.52;;;16.30;99.90;;;;;;4968626;28;20034;-82
2022/06/19 08:44:40;;;;;;;5.55;1.20;;;17.30;99.90;;;;;;4968243;28;20031;-81
2022/06/19 08:47:15;;;;;;;2.42;1.10;;;18.10;97.80;;;;;;4971972;28;20475;-81
2022/06/19 08:50:03;;;;;;;5.63;1.40;;;18.30;97.40;;;;;;4972873;28;20110;-81
2022/06/19 08:52:52;;;;;;;8.70;1.33;;;18.60;95.40;;;;;;4967535;28;20019;-81
2022/06/19 08:55:45;;;;;;;3.45;1.42;;;18.90;92.80;;;;;;4967686;28;20117;-81
2022/06/19 08:58:30;;;;;;;4.78;1.15;;;19.80;84.40;;;;;;4971153;28;20483;-82
2022/06/19 09:01:08;;;;;;;6.45;1.52;;;20.20;81.70;;;;;;4971645;28;20053;-85
2022/06/19 09:06:55;;;;;;;3.72;1.02;;;20.50;80.60;;;;;;4972463;28;20070;-81
2022/06/19 09:09:42;;;;;;;5.57;1.17;;;20.40;73.20;;;;;;4972223;28;20423;-81
2022/06/19 09:12:13;;;;;;;1.73;0.75;;;19.90;75.80;;;;;;4969902;28;20097;-80
2022/06/19 09:15:03;;;;;;;3.88;0.90;;;19.70;83.50;;;;;;4970188;28;20113;-80
2022/06/19 09:17:56;;;;;;;3.67;1.27;;;18.80;85.40;;;;;;4971224;28;20031;-80
2022/06/19 09:20:37;;;;;;;3.75;1.13;;;18.20;86.50;;;;;;4962876;28;20381;-82
2022/06/19 09:23:13;;;;;;;5.72;1.00;;;17.80;95.30;;;;;;4972341;28;20015;-82
2022/06/19 09:25:50;;;;;;;6.55;1.27;;;17.30;96.60;;;;;;4967749;28;20078;-82
2022/06/19 09:28:33;;;;;;;7.15;1.63;;;17.10;93.30;;;;;;4968999;28;20031;-81
2022/06/19 09:31:32;;;;;;;4.32;1.27;;;16.80;98.60;;;;;;4967901;28;20027;-81
2022/06/19 09:34:08;;;;;;;3.85;0.88;;;16.80;99.90;;;;;;4968945;28;20034;-81
2022/06/19 09:36:40;;;;;;;3.50;0.90;;;17.00;99.90;;;;;;4971960;28;20566;-82
2022/06/19 09:39:42;;;;;;;3.88;0.80;;;17.00;99.90;;;;;;4972326;28;20030;-81
2022/06/19 09:42:37;;;;;;;3.47;1.02;;;17.00;99.90;;;;;;4941195;28;20078;-80
2022/06/19 09:45:21;;;;;;;4.75;1.08;;;17.00;98.20;;;;;;4963648;28;20046;-81
2022/06/19 09:48:08;;;;;;;4.28;1.08;;;16.90;99.90;;;;;;4987088;23;20050;-80
2022/06/19 09:50:43;;;;;;;4.45;0.88;;;16.70;99.90;;;;;;4969506;28;20122;-79
2022/06/19 09:53:15;;;;;;;1.88;0.90;;;16.50;99.30;;;;;;4969832;28;20021;-78
2022/06/19 09:55:57;;;;;;;3.00;1.00;;;16.40;99.90;;;;;;4973724;28;20117;-79
2022/06/19 09:58:25;;;;;;;;;;;16.40;99.90;;;;;;4974483;28;20026;-79
2022/06/19 10:00:57;;;;;;;4.90;0.88;;;16.30;99.90;;;;;;4974550;28;20021;-77
2022/06/19 10:03:58;;;;;;;4.13;1.15;;;16.30;99.90;;;;;;4973861;28;20054;-77
2022/06/19 10:06:45;;;;;;;5.13;0.77;;;16.30;99.90;;;;;;4971802;28;20025;-76
2022/06/19 10:09:42;;;;;;;3.50;1.17;;;16.40;99.90;;;;;;4974098;28;20090;-76
2022/06/19 10:12:14;;;;;;;3.85;0.95;;;16.40;99.90;;;;;;4974026;28;20026;-75
2022/06/19 10:14:43;;;;;;;3.58;1.15;;;16.50;99.90;;;;;;4973994;28;20506;-77
2022/06/19 10:17:23;;;;;;;7.70;1.05;;;16.40;99.90;;;;;;4968879;28;20082;-77
2022/06/19 10:20:02;;;;;;;9.60;0.98;;;16.50;99.90;;;;;;4964147;28;20027;-76
2022/06/19 10:22:44;;;;;;;4.78;1.20;;;16.50;99.90;;;;;;4973618;28;20541;-76
2022/06/19 10:25:36;;;;;;;;;;;16.60;99.90;;;;;;4969137;28;20034;-77
2022/06/19 10:28:08;;;;;;;4.00;0.82;;;16.70;99.90;;;;;;4965626;28;19913;-77
2022/06/19 10:30:45;;;;;;;4.82;1.02;;;16.70;99.90;;;;;;4973848;28;20029;-77
2022/06/19 10:33:38;;;;;;;4.38;0.75;;;16.70;99.90;;;;;;4967808;28;20027;-76
2022/06/19 10:36:39;;;;;;;7.15;1.20;;;16.60;99.90;;;;;;4969084;28;20114;-76
2022/06/19 10:39:32;;;;;;;4.90;1.08;;;16.60;99.00;;;;;;4953435;28;20039;-76
2022/06/19 10:42:06;;;;;;;3.58;0.90;;;16.70;99.90;;;;;;4973883;28;20022;-77
2022/06/19 10:44:52;;;;;;;4.78;0.60;;;16.70;99.90;;;;;;4973692;28;20031;-77
2022/06/19 10:47:29;;;;;;;2.92;0.80;;;16.70;99.90;;;;;;5008080;23;20139;-79
2022/06/19 10:50:24;;;;;;;4.78;1.05;;;16.60;99.90;;;;;;4992304;28;20026;-78
2022/06/19 10:53:20;;;;;;;4.45;1.20;;;16.30;99.90;;;;;;4975103;28;20675;-79
2022/06/19 10:56:10;;;;;;;3.22;1.02;;;16.30;99.90;;;;;;4992783;28;20104;-78
2022/06/19 10:58:36;;;;;;;3.65;1.00;;;16.30;99.90;;;;;;4986251;28;20044;-78
2022/06/19 11:01:04;;;;;;;5.40;0.75;;;16.10;99.90;;;;;;5007580;28;20086;-79
2022/06/19 11:06:50;;;;;;;3.08;0.65;;;16.30;99.90;;;;;;4991875;28;20041;-80
2022/06/19 11:09:31;;;;;;;5.97;0.90;;;16.60;99.90;;;;;;4985091;28;20037;-78
2022/06/19 11:12:04;;;;;;;8.17;1.00;;;17.00;99.90;;;;;;4992088;28;20026;-78
2022/06/19 11:14:34;;;;;;;2.22;0.68;;;17.40;99.90;;;;;;4992210;28;20086;-77
2022/06/19 11:17:12;;;;;;;1.92;1.00;;;17.80;99.90;;;;;;4991839;28;20026;-78
2022/06/19 11:19:48;;;;;;;2.30;1.10;;;17.80;99.90;;;;;;4986708;28;20018;-78
2022/06/19 11:22:25;;;;;;;6.60;1.30;;;18.60;99.90;;;;;;4988024;28;20072;-78
2022/06/19 11:24:52;;;;;;;3.38;0.80;;;19.30;97.70;;;;;;4992205;28;20429;-78
2022/06/19 11:27:21;;;;;;;6.53;0.93;;;19.40;99.90;;;;;;4991980;28;20467;-78
2022/06/19 11:29:50;;;;;;;1.33;0.85;;;19.00;91.50;;;;;;5007286;28;20401;-78
2022/06/19 11:32:19;;;;;;;5.75;1.08;;;18.90;96.90;;;;;;4992065;28;20055;-78
2022/06/19 11:34:58;;;;;;;9.95;1.05;;;18.80;98.50;;;;;;4990457;28;20042;-79
2022/06/19 11:37:29;;;;;;;4.93;1.10;;;18.50;96.60;;;;;;4991865;28;20030;-78
2022/06/19 11:39:58;;;;;;;4.25;0.82;;;18.50;99.90;;;;;;4991589;28;20030;-78
2022/06/19 11:42:48;;;;;;;5.57;0.80;;;18.60;99.90;;;;;;4990807;28;20026;-78
2022/06/19 11:45:13;;;;;;;4.15;0.77;;;18.50;94.60;;;;;;4987189;28;20046;-78
2022/06/19 11:47:42;;;;;;;6.47;1.00;;;18.60;89.70;;;;;;5036999;23;20529;-76
2022/06/19 11:50:15;;;;;;;5.03;1.05;;;18.60;93.80;;;;;;5004981;28;20080;-76
2022/06/19 11:52:47;;;;;;;6.00;1.10;;;18.90;93.30;;;;;;5011710;28;20022;-76
2022/06/19 11:55:23;;;;;;;5.57;1.10;;;19.20;85.90;;;;;;5010975;28;20026;-78
2022/06/19 11:57:51;;;;;;;4.38;0.95;;;19.70;78.90;;;;;;4999162;28;20561;-78
2022/06/19 12:00:28;;;;;;;4.28;0.70;;;20.00;78.60;;;;;;5003091;28;20034;-78
2022/06/19 12:02:56;;;;;;;7.72;1.00;;;20.60;76.10;;;;;;4999772;28;20026;-78
2022/06/19 12:05:25;;;;;;;3.20;0.65;;;21.60;71.80;;;;;;4999658;28;20092;-78
2022/06/19 12:07:51;;;;;;;1.92;0.75;;;23.30;68.00;;;;;;5003611;28;20390;-78
2022/06/19 12:10:22;;;;;;;4.15;0.73;;;24.10;61.90;;;;;;4998975;28;20474;-78
2022/06/19 12:13:00;;;;;;;2.28;0.73;;;25.00;56.60;;;;;;5001598;28;20026;-78
2022/06/19 12:15:31;;;;;;;3.30;0.77;;;24.80;54.90;;;;;;5001493;28;20466;-79
2022/06/19 12:17:59;;;;;;;7.15;0.70;;;23.60;57.90;;;;;;4998922;28;20033;-79
2022/06/19 12:20:28;;;;;;;2.47;0.63;;;25.10;57.80;;;;;;4999815;28;20026;-78
2022/06/19 12:23:07;;;;;;;3.70;0.68;;;26.10;52.80;;;;;;5002152;28;20022;-78
2022/06/19 12:26:00;;;;;;;6.53;0.82;;;28.50;57.10;;;;;;5000424;28;20050;-79
2022/06/19 12:28:31;;;;;;;1.42;0.40;;;28.40;45.80;;;;;;5002192;28;20034;-79
2022/06/19 12:31:13;;;;;;;3.65;0.40;;;28.30;46.40;;;;;;4997270;28;20053;-79
2022/06/19 12:33:55;;;;;;;2.28;0.43;;;28.00;46.70;;;;;;5000592;28;20030;-79
2022/06/19 12:36:35;;;;;;;2.72;0.60;;;27.40;49.40;;;;;;5001796;28;20026;-77
2022/06/19 12:39:01;;;;;;;1.98;0.70;;;29.10;51.70;;;;;;4997805;28;20412;-79
2022/06/19 12:41:36;;;;;;;3.40;0.60;;;29.80;44.70;;;;;;4997884;28;20034;-78
2022/06/19 12:44:24;;;;;;;2.08;0.50;;;29.60;41.50;;;;;;4993488;28;20026;-78
2022/06/19 12:47:17;;;;;;;3.15;0.52;;;29.60;44.30;;;;;;5016623;23;20049;-78
2022/06/19 12:50:20;;;;;;;4.05;0.60;;;31.00;46.60;;;;;;4990676;28;20023;-79
2022/06/19 12:52:51;;;;;;;3.95;0.93;;;31.60;44.60;;;;;;4991392;28;20085;-78
2022/06/19 12:55:35;;;;;;;;;;;30.40;37.70;;;;;;4991296;28;20383;-78
2022/06/19 12:58:12;;;;;;;2.70;0.60;;;29.00;38.10;;;;;;4998803;28;19906;-79
2022/06/19 13:00:47;;;;;;;1.77;0.52;;;26.50;44.30;;;;;;4990816;28;20027;-78
2022/06/19 13:03:15;;;;;;;3.55;0.55;;;26.10;48.10;;;;;;4985834;28;20026;-79
2022/06/19 13:06:11;;;;;;;2.35;0.40;;;25.30;45.40;;;;;;4990166;28;20018;-78
2022/06/19 13:09:14;;;;;;;1.42;0.38;;;24.60;47.10;;;;;;4984904;28;20030;-79
2022/06/19 13:12:08;;;;;;;2.95;0.50;;;24.50;48.30;;;;;;4987112;28;20054;-79
2022/06/19 13:14:52;;;;;;;2.42;0.75;;;24.80;48.80;;;;;;4989834;28;20041;-80
2022/06/19 13:17:31;;;;;;;0.80;0.50;;;24.30;47.40;;;;;;4995906;28;20688;-78
2022/06/19 13:20:08;;;;;;;2.17;0.52;;;24.60;51.20;;;;;;4993690;28;20455;-78
2022/06/19 13:22:34;;;;;;;1.75;0.60;;;24.80;50.00;;;;;;4994297;28;20026;-78
2022/06/19 13:25:09;;;;;;;2.83;0.32;;;24.80;49.30;;;;;;4992110;28;20037;-78